createdAt,value
2019-04-29T00:01:23.193Z,74.20
2019-04-29T00:04:31.952Z,74.85
2019-04-29T00:07:40.699Z,74.82
2019-04-29T00:10:49.653Z,74.61
2019-04-29T00:13:58.573Z,75.08
2019-04-29T00:17:14.100Z,75.51
2019-04-29T00:20:29.435Z,75.21
2019-04-29T00:23:37.965Z,76.18
2019-04-29T00:26:46.554Z,76.11
2019-04-29T00:29:55.200Z,75.72
2019-04-29T00:33:03.978Z,76.02
2019-04-29T00:36:12.679Z,76.27
2019-04-29T00:39:39.480Z,76.21
2019-04-29T00:43:03.872Z,75.82
2019-04-29T00:46:12.999Z,75.71
2019-04-29T00:49:22.708Z,75.42
2019-04-29T00:52:41.583Z,75.11
2019-04-29T00:55:52.082Z,74.96
2019-04-29T00:59:00.605Z,74.88
2019-04-29T01:02:10.051Z,75.11
2019-04-29T01:05:29.158Z,74.46
2019-04-29T01:08:37.904Z,74.07
2019-04-29T01:11:46.528Z,75.07
2019-04-29T01:14:55.146Z,74.82
2019-04-29T01:18:03.865Z,75.34
2019-04-29T01:21:12.530Z,75.06
2019-04-29T01:24:21.052Z,74.93
2019-04-29T01:27:34.782Z,74.85
2019-04-29T01:31:02.341Z,75.07
2019-04-29T01:34:28.630Z,74.85
2019-04-29T01:37:42.571Z,74.95
2019-04-29T01:41:08.108Z,74.50
2019-04-29T01:44:17.345Z,74.90
2019-04-29T01:47:38.531Z,74.92
2019-04-29T01:50:48.975Z,74.85
2019-04-29T01:53:57.584Z,74.79
2019-04-29T01:57:07.259Z,74.95
2019-04-29T02:00:16.553Z,75.11
2019-04-29T02:03:25.084Z,74.95
2019-04-29T02:06:34.022Z,75.32
2019-04-29T02:09:57.043Z,75.74
2019-04-29T02:13:06.380Z,75.93
2019-04-29T02:16:16.252Z,76.62
2019-04-29T02:19:26.317Z,76.55
2019-04-29T02:23:02.894Z,76.33
2019-04-29T02:26:11.501Z,76.63
2019-04-29T02:29:20.126Z,76.72
2019-04-29T02:32:28.778Z,76.96
2019-04-29T02:35:37.523Z,77.21
2019-04-29T02:38:53.574Z,77.24
2019-04-29T02:42:45.445Z,77.06
2019-04-29T02:45:55.227Z,77.11
2019-04-29T02:49:14.171Z,77.50
2019-04-29T02:52:22.803Z,77.64
2019-04-29T02:55:35.977Z,78.09
2019-04-29T02:58:50.682Z,78.40
2019-04-29T03:02:31.153Z,77.83
2019-04-29T03:05:44.121Z,77.54
2019-04-29T03:08:52.712Z,78.46
2019-04-29T03:12:11.803Z,77.92
2019-04-29T03:15:34.644Z,77.70
2019-04-29T03:18:47.931Z,77.54
2019-04-29T03:21:57.341Z,77.41
2019-04-29T03:25:06.853Z,77.04
2019-04-29T03:28:25.634Z,76.94
2019-04-29T03:31:39.106Z,76.92
2019-04-29T03:34:44.648Z,77.27
2019-04-29T03:37:53.348Z,77.12
2019-04-29T03:41:01.919Z,77.15
2019-04-29T03:44:10.551Z,77.27
2019-04-29T03:47:19.350Z,77.61
2019-04-29T03:50:28.242Z,77.17
2019-04-29T03:53:36.803Z,77.81
2019-04-29T03:56:46.087Z,77.56
2019-04-29T03:59:57.075Z,77.88
2019-04-29T04:03:11.978Z,77.97
2019-04-29T04:06:26.038Z,77.98
2019-04-29T04:09:52.888Z,78.50
2019-04-29T04:13:01.650Z,78.57
2019-04-29T04:16:13.323Z,79.44
2019-04-29T04:19:22.829Z,78.89
2019-04-29T04:22:48.157Z,79.52
2019-04-29T04:25:56.806Z,80.21
2019-04-29T04:29:05.407Z,80.46
2019-04-29T04:32:14.018Z,80.53
2019-04-29T04:35:22.651Z,81.58
2019-04-29T04:38:31.295Z,81.98
2019-04-29T04:41:39.968Z,82.39
2019-04-29T04:44:58.798Z,82.99
2019-04-29T04:48:07.567Z,83.08
2019-04-29T04:51:16.427Z,83.05
2019-04-29T04:54:25.034Z,82.78
2019-04-29T04:57:33.695Z,83.07
2019-04-29T05:00:44.124Z,82.84
2019-04-29T05:03:52.787Z,82.99
2019-04-29T05:07:01.571Z,83.39
2019-04-29T05:10:10.269Z,82.53
2019-04-29T05:13:27.989Z,83.00
2019-04-29T05:16:29.871Z,83.39
2019-04-29T05:19:38.436Z,83.74
2019-04-29T05:23:02.404Z,83.39
2019-04-29T05:26:21.656Z,83.89
2019-04-29T05:29:30.271Z,83.56
2019-04-29T05:32:41.669Z,83.67
2019-04-29T05:36:09.101Z,83.69
2019-04-29T05:39:42.436Z,83.67
2019-04-29T05:43:05.128Z,83.88
2019-04-29T05:46:32.347Z,83.87
2019-04-29T05:49:58.711Z,84.44
2019-04-29T05:53:20.559Z,84.48
2019-04-29T05:56:29.177Z,84.66
2019-04-29T05:59:37.877Z,84.78
2019-04-29T06:02:46.495Z,84.09
2019-04-29T06:05:55.128Z,84.17
2019-04-29T06:09:11.777Z,84.08
2019-04-29T06:12:19.203Z,84.21
2019-04-29T06:15:27.831Z,83.78
2019-04-29T06:18:36.379Z,83.30
2019-04-29T06:21:55.219Z,83.78
2019-04-29T06:25:02.376Z,84.02
2019-04-29T06:28:11.053Z,84.20
2019-04-29T06:31:19.911Z,84.58
2019-04-29T06:34:28.637Z,84.51
2019-04-29T06:37:37.295Z,84.45
2019-04-29T06:40:45.955Z,84.35
2019-04-29T06:43:56.155Z,84.13
2019-04-29T06:47:04.895Z,84.36
2019-04-29T06:50:13.697Z,83.75
2019-04-29T06:53:23.478Z,84.34
2019-04-29T06:56:42.546Z,84.75
2019-04-29T06:59:51.123Z,85.27
2019-04-29T07:02:59.639Z,85.00
2019-04-29T07:06:08.421Z,84.93
2019-04-29T07:09:17.053Z,84.06
2019-04-29T07:12:27.488Z,84.01
2019-04-29T07:15:36.061Z,83.94
2019-04-29T07:18:49.360Z,83.93
2019-04-29T07:21:56.579Z,83.90
2019-04-29T07:25:17.345Z,83.68
2019-04-29T07:28:38.406Z,84.37
2019-04-29T07:31:47.147Z,84.58
2019-04-29T07:34:55.735Z,84.07
2019-04-29T07:38:08.211Z,84.61
2019-04-29T07:41:18.964Z,84.63
2019-04-29T07:44:42.788Z,84.47
2019-04-29T07:47:40.402Z,83.91
2019-04-29T07:50:49.098Z,83.64
2019-04-29T07:53:57.849Z,83.91
2019-04-29T07:57:06.533Z,84.05
2019-04-29T08:00:15.843Z,84.18
2019-04-29T08:03:24.512Z,84.24
2019-04-29T08:06:38.027Z,83.53
2019-04-29T08:09:45.378Z,83.24
2019-04-29T08:12:55.011Z,83.40
2019-04-29T08:16:03.661Z,82.70
2019-04-29T08:19:12.316Z,81.81
2019-04-29T08:22:22.981Z,82.64
2019-04-29T08:25:31.461Z,82.88
2019-04-29T08:28:52.897Z,82.98
2019-04-29T08:32:02.495Z,82.91
2019-04-29T08:35:21.679Z,82.89
2019-04-29T08:38:30.435Z,82.83
2019-04-29T08:41:39.082Z,82.40
2019-04-29T08:45:15.473Z,82.86
2019-04-29T08:48:24.128Z,82.41
2019-04-29T08:51:32.673Z,83.42
2019-04-29T08:54:41.268Z,83.12
2019-04-29T08:57:49.876Z,83.39
2019-04-29T09:00:58.643Z,83.36
2019-04-29T09:04:07.315Z,83.19
2019-04-29T09:07:17.465Z,83.13
2019-04-29T09:10:26.452Z,82.37
2019-04-29T09:13:35.047Z,82.96
2019-04-29T09:16:53.911Z,83.17
2019-04-29T09:20:02.542Z,82.93
2019-04-29T09:23:13.440Z,83.35
2019-04-29T09:26:44.782Z,83.47
2019-04-29T09:30:13.263Z,82.97
2019-04-29T09:33:23.413Z,82.59
2019-04-29T09:36:48.413Z,82.99
2019-04-29T09:39:57.472Z,82.82
2019-04-29T09:43:45.793Z,82.33
2019-04-29T09:46:54.403Z,82.18
2019-04-29T09:50:03.015Z,82.40
2019-04-29T09:53:11.861Z,82.06
2019-04-29T09:56:20.842Z,81.30
2019-04-29T09:59:41.755Z,82.10
2019-04-29T10:02:59.021Z,82.33
2019-04-29T10:06:13.491Z,81.69
2019-04-29T10:09:22.625Z,81.99
2019-04-29T10:12:41.906Z,82.00
2019-04-29T10:16:07.039Z,82.29
2019-04-29T10:19:34.643Z,82.02
2019-04-29T10:22:43.378Z,81.49
2019-04-29T10:25:50.564Z,81.72
2019-04-29T10:29:05.975Z,81.83
2019-04-29T10:32:14.687Z,82.10
2019-04-29T10:35:23.333Z,81.62
2019-04-29T10:38:32.032Z,81.68
2019-04-29T10:41:43.558Z,80.24
2019-04-29T10:45:14.093Z,81.20
2019-04-29T10:48:50.121Z,80.93
2019-04-29T10:52:02.900Z,80.45
2019-04-29T10:55:10.301Z,79.82
2019-04-29T10:58:21.924Z,79.77
2019-04-29T11:02:35.842Z,80.15
2019-04-29T11:06:00.475Z,79.61
2019-04-29T11:09:18.569Z,77.32
2019-04-29T11:12:27.495Z,78.63
2019-04-29T11:15:37.473Z,78.71
2019-04-29T11:18:46.246Z,78.99
2019-04-29T11:21:55.480Z,77.00
2019-04-29T11:25:29.636Z,78.35
2019-04-29T11:28:39.843Z,77.92
2019-04-29T11:31:54.082Z,77.70
2019-04-29T11:35:08.776Z,76.06
2019-04-29T11:38:18.455Z,75.99
2019-04-29T11:41:38.082Z,75.65
2019-04-29T11:45:01.740Z,74.55
2019-04-29T11:48:18.055Z,74.82
2019-04-29T11:52:07.658Z,71.90
2019-04-29T11:54:55.356Z,70.47
2019-04-29T11:58:09.962Z,68.87
2019-04-29T12:01:51.187Z,70.42
2019-04-29T12:05:04.238Z,69.65
2019-04-29T12:08:17.138Z,69.07
2019-04-29T12:11:36.284Z,70.15
2019-04-29T12:14:59.950Z,70.04
2019-04-29T12:18:12.680Z,68.50
2019-04-29T12:21:25.839Z,67.28
2019-04-29T12:24:47.279Z,67.31
2019-04-29T12:28:01.542Z,67.60
2019-04-29T12:31:14.188Z,66.37
2019-04-29T12:34:40.651Z,64.93
2019-04-29T12:38:39.353Z,64.71
2019-04-29T12:42:08.086Z,61.34
2019-04-29T12:45:38.654Z,58.20
2019-04-29T12:48:48.289Z,56.11
2019-04-29T12:51:57.037Z,53.61
2019-04-29T12:55:19.788Z,52.40
2019-04-29T12:58:19.224Z,54.33
2019-04-29T13:01:51.353Z,54.83
2019-04-29T13:05:35.895Z,52.01
2019-04-29T13:08:57.059Z,51.12
2019-04-29T13:12:19.043Z,50.64
2019-04-29T13:15:36.363Z,51.33
2019-04-29T13:19:31.469Z,49.17
2019-04-29T13:22:40.169Z,48.28
2019-04-29T13:25:51.072Z,47.86
2019-04-29T13:29:25.999Z,47.11
2019-04-29T13:32:21.073Z,47.99
2019-04-29T13:35:29.669Z,50.65
2019-04-29T13:38:38.381Z,49.47
2019-04-29T13:41:57.023Z,49.62
2019-04-29T13:45:07.900Z,50.30
2019-04-29T13:48:53.904Z,49.17
2019-04-29T13:52:04.910Z,48.80
2019-04-29T13:55:47.126Z,49.89
2019-04-29T13:58:35.255Z,49.58
2019-04-29T14:02:06.813Z,48.76
2019-04-29T14:05:13.716Z,47.85
2019-04-29T14:08:24.087Z,49.34
2019-04-29T14:11:32.695Z,48.58
2019-04-29T14:14:41.505Z,47.90
2019-04-29T14:17:50.131Z,46.57
2019-04-29T14:20:58.992Z,45.06
2019-04-29T14:24:07.740Z,45.75
2019-04-29T14:27:24.747Z,46.94
2019-04-29T14:30:38.376Z,46.92
2019-04-29T14:34:06.091Z,48.40
2019-04-29T14:37:23.266Z,47.97
2019-04-29T14:40:25.014Z,47.09
2019-04-29T14:43:58.649Z,47.34
2019-04-29T14:47:29.261Z,47.74
2019-04-29T14:50:38.090Z,46.46
2019-04-29T14:53:56.109Z,46.54
2019-04-29T14:56:57.177Z,46.21
2019-04-29T15:00:09.921Z,46.10
2019-04-29T15:03:19.078Z,46.19
2019-04-29T15:06:28.992Z,45.51
2019-04-29T15:09:55.801Z,45.06
2019-04-29T15:13:21.405Z,45.20
2019-04-29T15:16:34.930Z,45.20
2019-04-29T15:19:49.399Z,45.45
2019-04-29T15:22:55.821Z,45.45
2019-04-29T15:26:04.412Z,46.21
2019-04-29T15:29:13.259Z,46.78
2019-04-29T15:32:23.808Z,46.60
2019-04-29T15:35:32.664Z,48.19
2019-04-29T15:38:41.382Z,47.48
2019-04-29T15:41:50.284Z,48.09
2019-04-29T15:44:59.202Z,48.06
2019-04-29T15:48:08.072Z,48.10
2019-04-29T15:51:18.757Z,48.78
2019-04-29T15:54:32.327Z,48.92
2019-04-29T15:57:41.469Z,48.40
2019-04-29T16:00:51.803Z,48.41
2019-04-29T16:04:02.481Z,47.76
2019-04-29T16:07:46.562Z,48.54
2019-04-29T16:11:14.061Z,48.97
2019-04-29T16:14:24.285Z,47.83
2019-04-29T16:17:37.833Z,47.95
2019-04-29T16:20:43.320Z,48.13
2019-04-29T16:23:57.443Z,48.39
2019-04-29T16:27:08.646Z,48.52
2019-04-29T16:30:18.606Z,48.69
2019-04-29T16:33:23.366Z,48.37
2019-04-29T16:36:32.019Z,48.78
2019-04-29T16:39:40.744Z,48.83
2019-04-29T16:43:07.395Z,47.35
2019-04-29T16:46:23.438Z,48.05
2019-04-29T16:49:32.556Z,47.99
2019-04-29T16:52:44.528Z,47.68
2019-04-29T16:55:53.277Z,47.62
2019-04-29T16:59:09.155Z,47.28
2019-04-29T17:02:22.668Z,47.52
2019-04-29T17:06:01.731Z,46.64
2019-04-29T17:09:45.511Z,46.23
2019-04-29T17:12:54.318Z,47.17
2019-04-29T17:16:04.651Z,46.64
2019-04-29T17:19:13.585Z,46.19
2019-04-29T17:22:25.897Z,46.53
2019-04-29T17:25:34.120Z,47.16
2019-04-29T17:28:49.207Z,46.07
2019-04-29T17:32:47.870Z,46.11
2019-04-29T17:35:55.801Z,45.58
2019-04-29T17:39:06.739Z,44.84
2019-04-29T17:42:15.322Z,45.13
2019-04-29T17:45:32.560Z,45.61
2019-04-29T17:48:48.663Z,45.20
2019-04-29T17:52:03.075Z,45.98
2019-04-29T17:55:37.192Z,45.37
2019-04-29T17:58:43.925Z,45.62
2019-04-29T18:02:39.582Z,45.47
2019-04-29T18:06:02.827Z,46.08
2019-04-29T18:09:30.607Z,45.69
2019-04-29T18:12:41.270Z,45.93
2019-04-29T18:16:00.538Z,45.68
2019-04-29T18:19:05.810Z,46.44
2019-04-29T18:22:39.936Z,46.29
2019-04-29T18:25:59.018Z,45.54
2019-04-29T18:29:08.098Z,45.69
2019-04-29T18:32:17.019Z,46.17
2019-04-29T18:35:25.695Z,45.82
2019-04-29T18:38:48.687Z,46.25
2019-04-29T18:41:58.621Z,46.70
2019-04-29T18:45:05.775Z,47.27
2019-04-29T18:48:26.898Z,46.36
2019-04-29T18:51:34.753Z,46.78
2019-04-29T18:54:44.994Z,47.15
2019-04-29T18:58:05.682Z,47.39
2019-04-29T19:01:14.233Z,47.76
2019-04-29T19:04:37.657Z,47.33
2019-04-29T19:07:55.175Z,47.21
2019-04-29T19:10:58.199Z,46.72
2019-04-29T19:14:06.825Z,47.01
2019-04-29T19:17:16.206Z,47.54
2019-04-29T19:20:25.083Z,46.69
2019-04-29T19:23:45.771Z,47.30
2019-04-29T19:27:02.262Z,46.53
2019-04-29T19:30:06.271Z,45.74
2019-04-29T19:33:15.179Z,45.47
2019-04-29T19:36:24.040Z,45.82
2019-04-29T19:39:31.641Z,46.13
2019-04-29T19:42:41.022Z,46.13
2019-04-29T19:45:50.505Z,46.87
2019-04-29T19:49:07.594Z,47.32
2019-04-29T19:52:09.509Z,46.29
2019-04-29T19:55:18.172Z,46.73
2019-04-29T19:58:31.234Z,47.80
2019-04-29T20:01:38.302Z,47.88
2019-04-29T20:05:00.024Z,47.46
2019-04-29T20:08:08.661Z,47.42
2019-04-29T20:11:18.861Z,47.27
2019-04-29T20:14:33.218Z,47.36
2019-04-29T20:17:56.897Z,47.12
2019-04-29T20:21:29.320Z,47.84
2019-04-29T20:24:38.466Z,47.70
2019-04-29T20:27:47.376Z,47.56
2019-04-29T20:31:14.834Z,48.06
2019-04-29T20:34:06.174Z,47.28
2019-04-29T20:37:26.127Z,48.30
2019-04-29T20:40:39.959Z,48.59
2019-04-29T20:43:46.268Z,49.72
2019-04-29T20:47:19.677Z,50.39
2019-04-29T20:50:16.431Z,50.57
2019-04-29T20:53:45.906Z,50.15
2019-04-29T20:57:17.453Z,50.27
2019-04-29T21:00:34.760Z,50.04
2019-04-29T21:04:50.844Z,51.10
2019-04-29T21:08:03.476Z,51.97
2019-04-29T21:11:22.195Z,52.09
2019-04-29T21:14:51.155Z,51.88
2019-04-29T21:18:02.042Z,51.75
2019-04-29T21:21:15.527Z,52.41
2019-04-29T21:24:31.168Z,53.39
2019-04-29T21:28:02.158Z,53.26
2019-04-29T21:31:15.636Z,53.61
2019-04-29T21:34:25.539Z,53.85
2019-04-29T21:38:22.262Z,54.18
2019-04-29T21:42:01.535Z,55.14
2019-04-29T21:45:17.448Z,55.40
2019-04-29T21:48:39.721Z,55.38
2019-04-29T21:51:49.822Z,55.20
2019-04-29T21:54:58.496Z,54.91
2019-04-29T21:58:21.292Z,55.49
2019-04-29T22:01:40.412Z,56.17
2019-04-29T22:04:48.967Z,56.08
2019-04-29T22:07:57.775Z,56.70
2019-04-29T22:11:07.058Z,57.13
2019-04-29T22:14:26.645Z,57.14
2019-04-29T22:17:36.007Z,57.17
2019-04-29T22:20:44.663Z,58.26
2019-04-29T22:23:55.128Z,58.73
2019-04-29T22:27:05.281Z,58.42
2019-04-29T22:30:18.188Z,58.90
2019-04-29T22:33:25.215Z,57.93
2019-04-29T22:36:36.019Z,57.57
2019-04-29T22:39:58.645Z,57.51
2019-04-29T22:43:33.592Z,58.01
2019-04-29T22:46:44.616Z,58.31
2019-04-29T22:49:52.642Z,57.54
2019-04-29T22:53:01.389Z,58.12
2019-04-29T22:56:13.951Z,58.96
2019-04-29T22:59:21.818Z,60.29
2019-04-29T23:02:30.357Z,60.09
2019-04-29T23:05:38.891Z,59.88
2019-04-29T23:08:57.909Z,60.11
2019-04-29T23:12:09.749Z,60.28
2019-04-29T23:15:22.751Z,59.48
2019-04-29T23:18:33.224Z,58.89
2019-04-29T23:21:57.290Z,59.08
2019-04-29T23:25:26.635Z,60.17
2019-04-29T23:28:35.594Z,60.09
2019-04-29T23:31:55.417Z,60.35
2019-04-29T23:35:06.270Z,61.13
2019-04-29T23:38:15.551Z,61.65
2019-04-29T23:41:27.619Z,61.58
2019-04-29T23:44:37.815Z,62.50
2019-04-29T23:47:46.894Z,62.24
2019-04-29T23:50:58.253Z,61.68
2019-04-29T23:54:07.843Z,61.82
2019-04-29T23:57:42.591Z,61.80
